sensor_id;sensor_type;location;lat;lon;timestamp;P1;durP1;ratioP1;P2;durP2;ratioP2
83096;SDS011;72968;49.460;11.004;2024-01-30T00:00:15;10.15;;;4.78;;
83096;SDS011;72968;49.460;11.004;2024-01-30T00:02:54;7.47;;;4.25;;
83096;SDS011;72968;49.460;11.004;2024-01-30T00:05:26;10.63;;;4.82;;
83096;SDS011;72968;49.460;11.004;2024-01-30T00:07:57;7.45;;;4.10;;
83096;SDS011;72968;49.460;11.004;2024-01-30T00:10:28;9.45;;;4.47;;
83096;SDS011;72968;49.460;11.004;2024-01-30T00:13:00;9.65;;;4.65;;
83096;SDS011;72968;49.460;11.004;2024-01-30T00:15:36;14.73;;;5.03;;
83096;SDS011;72968;49.460;11.004;2024-01-30T00:18:07;9.10;;;3.65;;
83096;SDS011;72968;49.460;11.004;2024-01-30T00:20:41;10.90;;;5.20;;
83096;SDS011;72968;49.460;11.004;2024-01-30T00:23:13;10.38;;;5.07;;
83096;SDS011;72968;49.460;11.004;2024-01-30T00:25:48;9.80;;;4.90;;
83096;SDS011;72968;49.460;11.004;2024-01-30T00:28:22;10.77;;;4.85;;
83096;SDS011;72968;49.460;11.004;2024-01-30T00:30:54;13.10;;;4.85;;
83096;SDS011;72968;49.460;11.004;2024-01-30T00:33:26;9.68;;;5.30;;
83096;SDS011;72968;49.460;11.004;2024-01-30T00:36:00;9.00;;;4.53;;
83096;SDS011;72968;49.460;11.004;2024-01-30T00:38:31;8.88;;;4.53;;
83096;SDS011;72968;49.460;11.004;2024-01-30T00:41:03;7.63;;;4.35;;
83096;SDS011;72968;49.460;11.004;2024-01-30T00:43:34;10.02;;;4.82;;
83096;SDS011;72968;49.460;11.004;2024-01-30T00:46:07;9.02;;;4.97;;
83096;SDS011;72968;49.460;11.004;2024-01-30T00:48:38;11.45;;;4.85;;
83096;SDS011;72968;49.460;11.004;2024-01-30T00:51:17;8.23;;;3.88;;
83096;SDS011;72968;49.460;11.004;2024-01-30T00:53:48;8.48;;;4.13;;
83096;SDS011;72968;49.460;11.004;2024-01-30T00:56:21;7.30;;;3.65;;
83096;SDS011;72968;49.460;11.004;2024-01-30T00:58:53;11.70;;;4.55;;
83096;SDS011;72968;49.460;11.004;2024-01-30T01:01:25;6.97;;;4.38;;
83096;SDS011;72968;49.460;11.004;2024-01-30T01:03:57;10.50;;;4.15;;
83096;SDS011;72968;49.460;11.004;2024-01-30T01:06:28;6.97;;;3.90;;
83096;SDS011;72968;49.460;11.004;2024-01-30T01:09:00;7.85;;;4.80;;
83096;SDS011;72968;49.460;11.004;2024-01-30T01:11:32;7.78;;;4.18;;
83096;SDS011;72968;49.460;11.004;2024-01-30T01:14:04;8.90;;;4.82;;
83096;SDS011;72968;49.460;11.004;2024-01-30T01:16:37;7.63;;;4.10;;
83096;SDS011;72968;49.460;11.004;2024-01-30T01:19:11;9.65;;;4.18;;
83096;SDS011;72968;49.460;11.004;2024-01-30T01:21:42;8.88;;;4.25;;
83096;SDS011;72968;49.460;11.004;2024-01-30T01:24:15;7.95;;;4.32;;
83096;SDS011;72968;49.460;11.004;2024-01-30T01:26:47;6.97;;;3.72;;
83096;SDS011;72968;49.460;11.004;2024-01-30T01:29:18;8.07;;;4.05;;
83096;SDS011;72968;49.460;11.004;2024-01-30T01:31:52;8.68;;;3.70;;
83096;SDS011;72968;49.460;11.004;2024-01-30T01:34:23;7.70;;;4.10;;
83096;SDS011;72968;49.460;11.004;2024-01-30T01:36:55;9.07;;;3.78;;
83096;SDS011;72968;49.460;11.004;2024-01-30T01:39:29;10.55;;;4.53;;
83096;SDS011;72968;49.460;11.004;2024-01-30T01:42:01;7.38;;;3.75;;
83096;SDS011;72968;49.460;11.004;2024-01-30T01:44:32;8.05;;;4.10;;
83096;SDS011;72968;49.460;11.004;2024-01-30T01:47:05;7.03;;;3.92;;
83096;SDS011;72968;49.460;11.004;2024-01-30T01:49:37;9.90;;;3.42;;
83096;SDS011;72968;49.460;11.004;2024-01-30T01:52:08;6.97;;;3.17;;
83096;SDS011;72968;49.460;11.004;2024-01-30T01:54:47;6.57;;;3.47;;
83096;SDS011;72968;49.460;11.004;2024-01-30T01:57:20;7.88;;;3.78;;
83096;SDS011;72968;49.460;11.004;2024-01-30T01:59:52;5.63;;;3.55;;
83096;SDS011;72968;49.460;11.004;2024-01-30T02:02:25;8.35;;;3.40;;
83096;SDS011;72968;49.460;11.004;2024-01-30T02:04:57;9.05;;;3.75;;
83096;SDS011;72968;49.460;11.004;2024-01-30T02:07:29;6.70;;;3.55;;
83096;SDS011;72968;49.460;11.004;2024-01-30T02:10:01;6.72;;;2.78;;
83096;SDS011;72968;49.460;11.004;2024-01-30T02:12:33;6.47;;;3.08;;
83096;SDS011;72968;49.460;11.004;2024-01-30T02:15:05;5.35;;;2.78;;
83096;SDS011;72968;49.460;11.004;2024-01-30T02:17:39;9.75;;;3.65;;
83096;SDS011;72968;49.460;11.004;2024-01-30T02:20:10;6.65;;;2.90;;
83096;SDS011;72968;49.460;11.004;2024-01-30T02:22:45;6.38;;;3.35;;
83096;SDS011;72968;49.460;11.004;2024-01-30T02:25:17;7.03;;;3.53;;
83096;SDS011;72968;49.460;11.004;2024-01-30T02:27:50;9.35;;;4.47;;
83096;SDS011;72968;49.460;11.004;2024-01-30T02:30:21;8.60;;;3.60;;
83096;SDS011;72968;49.460;11.004;2024-01-30T02:32:52;6.97;;;3.80;;
83096;SDS011;72968;49.460;11.004;2024-01-30T02:35:24;7.45;;;3.90;;
83096;SDS011;72968;49.460;11.004;2024-01-30T02:37:56;5.93;;;3.45;;
83096;SDS011;72968;49.460;11.004;2024-01-30T02:40:31;6.82;;;3.47;;
83096;SDS011;72968;49.460;11.004;2024-01-30T02:43:02;9.30;;;3.63;;
83096;SDS011;72968;49.460;11.004;2024-01-30T02:45:34;5.82;;;3.17;;
83096;SDS011;72968;49.460;11.004;2024-01-30T02:48:12;6.38;;;4.13;;
83096;SDS011;72968;49.460;11.004;2024-01-30T02:50:44;10.93;;;3.63;;
83096;SDS011;72968;49.460;11.004;2024-01-30T02:53:18;10.13;;;3.70;;
83096;SDS011;72968;49.460;11.004;2024-01-30T02:55:49;7.60;;;3.95;;
83096;SDS011;72968;49.460;11.004;2024-01-30T02:58:21;7.93;;;3.58;;
83096;SDS011;72968;49.460;11.004;2024-01-30T03:00:53;6.80;;;3.53;;
83096;SDS011;72968;49.460;11.004;2024-01-30T03:03:25;5.82;;;3.53;;
83096;SDS011;72968;49.460;11.004;2024-01-30T03:08:28;6.82;;;3.45;;
83096;SDS011;72968;49.460;11.004;2024-01-30T03:11:13;6.97;;;3.50;;
83096;SDS011;72968;49.460;11.004;2024-01-30T03:13:48;7.82;;;3.42;;
83096;SDS011;72968;49.460;11.004;2024-01-30T03:16:20;6.82;;;3.97;;
83096;SDS011;72968;49.460;11.004;2024-01-30T03:18:52;6.55;;;3.38;;
83096;SDS011;72968;49.460;11.004;2024-01-30T03:21:23;7.63;;;3.85;;
83096;SDS011;72968;49.460;11.004;2024-01-30T03:23:56;9.55;;;3.95;;
83096;SDS011;72968;49.460;11.004;2024-01-30T03:26:29;9.05;;;3.92;;
83096;SDS011;72968;49.460;11.004;2024-01-30T03:29:00;6.80;;;3.95;;
83096;SDS011;72968;49.460;11.004;2024-01-30T03:31:34;7.65;;;3.55;;
83096;SDS011;72968;49.460;11.004;2024-01-30T03:34:05;7.47;;;3.90;;
83096;SDS011;72968;49.460;11.004;2024-01-30T03:36:38;8.75;;;4.00;;
83096;SDS011;72968;49.460;11.004;2024-01-30T03:39:13;7.47;;;3.90;;
83096;SDS011;72968;49.460;11.004;2024-01-30T03:41:45;9.00;;;4.50;;
83096;SDS011;72968;49.460;11.004;2024-01-30T03:44:17;10.05;;;4.50;;
83096;SDS011;72968;49.460;11.004;2024-01-30T03:46:48;7.72;;;3.95;;
83096;SDS011;72968;49.460;11.004;2024-01-30T03:49:21;8.15;;;4.07;;
83096;SDS011;72968;49.460;11.004;2024-01-30T03:51:53;8.20;;;4.18;;
83096;SDS011;72968;49.460;11.004;2024-01-30T03:54:25;8.88;;;4.70;;
83096;SDS011;72968;49.460;11.004;2024-01-30T03:56:57;9.02;;;4.38;;
83096;SDS011;72968;49.460;11.004;2024-01-30T03:59:29;8.65;;;5.18;;
83096;SDS011;72968;49.460;11.004;2024-01-30T04:02:03;6.88;;;4.53;;
83096;SDS011;72968;49.460;11.004;2024-01-30T04:04:35;6.50;;;3.95;;
83096;SDS011;72968;49.460;11.004;2024-01-30T04:07:07;7.88;;;4.30;;
83096;SDS011;72968;49.460;11.004;2024-01-30T04:09:39;8.35;;;4.28;;
83096;SDS011;72968;49.460;11.004;2024-01-30T04:12:15;9.30;;;4.03;;
83096;SDS011;72968;49.460;11.004;2024-01-30T04:14:47;7.82;;;4.55;;
83096;SDS011;72968;49.460;11.004;2024-01-30T04:17:21;11.32;;;3.90;;
83096;SDS011;72968;49.460;11.004;2024-01-30T04:19:52;9.20;;;4.35;;
83096;SDS011;72968;49.460;11.004;2024-01-30T04:22:23;8.52;;;4.75;;
83096;SDS011;72968;49.460;11.004;2024-01-30T04:25:00;7.07;;;4.05;;
83096;SDS011;72968;49.460;11.004;2024-01-30T04:27:31;8.65;;;3.80;;
83096;SDS011;72968;49.460;11.004;2024-01-30T04:30:05;9.45;;;4.13;;
83096;SDS011;72968;49.460;11.004;2024-01-30T04:32:37;9.23;;;4.40;;
83096;SDS011;72968;49.460;11.004;2024-01-30T04:35:10;10.25;;;3.95;;
83096;SDS011;72968;49.460;11.004;2024-01-30T04:37:41;9.73;;;4.80;;
83096;SDS011;72968;49.460;11.004;2024-01-30T04:40:15;7.07;;;4.03;;
83096;SDS011;72968;49.460;11.004;2024-01-30T04:42:47;8.98;;;4.40;;
83096;SDS011;72968;49.460;11.004;2024-01-30T04:45:18;8.68;;;3.97;;
83096;SDS011;72968;49.460;11.004;2024-01-30T04:47:49;9.98;;;4.55;;
83096;SDS011;72968;49.460;11.004;2024-01-30T04:50:23;10.77;;;4.70;;
83096;SDS011;72968;49.460;11.004;2024-01-30T04:52:54;9.52;;;4.90;;
83096;SDS011;72968;49.460;11.004;2024-01-30T04:55:30;7.45;;;4.20;;
83096;SDS011;72968;49.460;11.004;2024-01-30T04:58:01;9.02;;;4.60;;
83096;SDS011;72968;49.460;11.004;2024-01-30T05:00:34;8.50;;;4.07;;
83096;SDS011;72968;49.460;11.004;2024-01-30T05:03:05;6.80;;;3.97;;
83096;SDS011;72968;49.460;11.004;2024-01-30T05:05:37;11.23;;;4.60;;
83096;SDS011;72968;49.460;11.004;2024-01-30T05:08:09;9.10;;;4.60;;
83096;SDS011;72968;49.460;11.004;2024-01-30T05:10:42;6.75;;;4.28;;
83096;SDS011;72968;49.460;11.004;2024-01-30T05:13:13;7.88;;;4.10;;
83096;SDS011;72968;49.460;11.004;2024-01-30T05:15:45;11.40;;;4.38;;
83096;SDS011;72968;49.460;11.004;2024-01-30T05:18:17;7.43;;;4.50;;
83096;SDS011;72968;49.460;11.004;2024-01-30T05:20:49;10.50;;;5.25;;
83096;SDS011;72968;49.460;11.004;2024-01-30T05:23:23;13.57;;;4.93;;
83096;SDS011;72968;49.460;11.004;2024-01-30T05:25:59;7.93;;;5.18;;
83096;SDS011;72968;49.460;11.004;2024-01-30T05:28:34;8.05;;;4.05;;
83096;SDS011;72968;49.460;11.004;2024-01-30T05:31:05;10.90;;;5.05;;
83096;SDS011;72968;49.460;11.004;2024-01-30T05:33:36;12.90;;;5.40;;
83096;SDS011;72968;49.460;11.004;2024-01-30T05:36:11;10.90;;;4.85;;
83096;SDS011;72968;49.460;11.004;2024-01-30T05:38:42;12.32;;;4.15;;
83096;SDS011;72968;49.460;11.004;2024-01-30T05:41:15;8.18;;;4.50;;
83096;SDS011;72968;49.460;11.004;2024-01-30T05:43:47;8.23;;;4.43;;
83096;SDS011;72968;49.460;11.004;2024-01-30T05:46:18;8.35;;;4.53;;
83096;SDS011;72968;49.460;11.004;2024-01-30T05:48:52;9.02;;;4.75;;
83096;SDS011;72968;49.460;11.004;2024-01-30T05:51:23;8.43;;;5.03;;
83096;SDS011;72968;49.460;11.004;2024-01-30T05:53:55;7.78;;;4.55;;
83096;SDS011;72968;49.460;11.004;2024-01-30T05:56:30;10.98;;;4.53;;
83096;SDS011;72968;49.460;11.004;2024-01-30T05:59:04;8.95;;;4.85;;
83096;SDS011;72968;49.460;11.004;2024-01-30T06:01:36;11.27;;;4.63;;
83096;SDS011;72968;49.460;11.004;2024-01-30T06:04:07;14.13;;;4.80;;
83096;SDS011;72968;49.460;11.004;2024-01-30T06:06:39;9.32;;;4.50;;
83096;SDS011;72968;49.460;11.004;2024-01-30T06:09:11;9.85;;;5.30;;
83096;SDS011;72968;49.460;11.004;2024-01-30T06:11:48;14.40;;;5.13;;
83096;SDS011;72968;49.460;11.004;2024-01-30T06:14:20;11.57;;;5.32;;
83096;SDS011;72968;49.460;11.004;2024-01-30T06:16:53;11.95;;;5.00;;
83096;SDS011;72968;49.460;11.004;2024-01-30T06:19:28;10.13;;;4.60;;
83096;SDS011;72968;49.460;11.004;2024-01-30T06:22:00;9.25;;;4.95;;
83096;SDS011;72968;49.460;11.004;2024-01-30T06:24:32;7.53;;;4.38;;
83096;SDS011;72968;49.460;11.004;2024-01-30T06:27:06;8.60;;;4.55;;
83096;SDS011;72968;49.460;11.004;2024-01-30T06:29:42;8.55;;;5.22;;
83096;SDS011;72968;49.460;11.004;2024-01-30T06:32:14;13.65;;;4.85;;
83096;SDS011;72968;49.460;11.004;2024-01-30T06:34:48;10.80;;;5.15;;
83096;SDS011;72968;49.460;11.004;2024-01-30T06:37:21;10.13;;;5.85;;
83096;SDS011;72968;49.460;11.004;2024-01-30T06:39:53;10.73;;;5.13;;
83096;SDS011;72968;49.460;11.004;2024-01-30T06:42:26;10.88;;;4.75;;
83096;SDS011;72968;49.460;11.004;2024-01-30T06:44:57;10.65;;;4.90;;
83096;SDS011;72968;49.460;11.004;2024-01-30T06:47:28;12.52;;;5.88;;
83096;SDS011;72968;49.460;11.004;2024-01-30T06:50:03;15.10;;;5.70;;
83096;SDS011;72968;49.460;11.004;2024-01-30T06:52:36;8.05;;;5.72;;
83096;SDS011;72968;49.460;11.004;2024-01-30T06:55:10;11.25;;;5.43;;
83096;SDS011;72968;49.460;11.004;2024-01-30T06:57:43;8.77;;;5.65;;
83096;SDS011;72968;49.460;11.004;2024-01-30T07:00:15;12.48;;;7.05;;
83096;SDS011;72968;49.460;11.004;2024-01-30T07:02:48;11.40;;;6.72;;
83096;SDS011;72968;49.460;11.004;2024-01-30T07:05:22;12.82;;;6.10;;
83096;SDS011;72968;49.460;11.004;2024-01-30T07:07:53;11.98;;;6.13;;
83096;SDS011;72968;49.460;11.004;2024-01-30T07:10:25;14.95;;;5.97;;
83096;SDS011;72968;49.460;11.004;2024-01-30T07:12:58;12.27;;;5.68;;
83096;SDS011;72968;49.460;11.004;2024-01-30T07:15:31;15.15;;;6.35;;
83096;SDS011;72968;49.460;11.004;2024-01-30T07:18:03;11.00;;;5.75;;
83096;SDS011;72968;49.460;11.004;2024-01-30T07:20:36;12.27;;;5.75;;
83096;SDS011;72968;49.460;11.004;2024-01-30T07:23:07;12.63;;;6.35;;
83096;SDS011;72968;49.460;11.004;2024-01-30T07:25:41;12.10;;;6.63;;
83096;SDS011;72968;49.460;11.004;2024-01-30T07:28:14;9.93;;;6.00;;
83096;SDS011;72968;49.460;11.004;2024-01-30T07:30:48;14.80;;;5.95;;
83096;SDS011;72968;49.460;11.004;2024-01-30T07:33:20;14.05;;;6.63;;
83096;SDS011;72968;49.460;11.004;2024-01-30T07:35:52;16.10;;;6.85;;
83096;SDS011;72968;49.460;11.004;2024-01-30T07:38:25;16.48;;;6.78;;
83096;SDS011;72968;49.460;11.004;2024-01-30T07:40:56;12.35;;;6.32;;
83096;SDS011;72968;49.460;11.004;2024-01-30T07:43:29;12.80;;;6.35;;
83096;SDS011;72968;49.460;11.004;2024-01-30T07:46:00;17.25;;;7.30;;
83096;SDS011;72968;49.460;11.004;2024-01-30T07:48:33;17.50;;;7.18;;
83096;SDS011;72968;49.460;11.004;2024-01-30T07:51:05;12.05;;;6.72;;
83096;SDS011;72968;49.460;11.004;2024-01-30T07:53:36;13.57;;;7.32;;
83096;SDS011;72968;49.460;11.004;2024-01-30T07:56:08;12.75;;;7.13;;
83096;SDS011;72968;49.460;11.004;2024-01-30T07:58:40;17.20;;;7.63;;
83096;SDS011;72968;49.460;11.004;2024-01-30T08:01:12;13.07;;;6.97;;
83096;SDS011;72968;49.460;11.004;2024-01-30T08:03:43;22.08;;;7.97;;
83096;SDS011;72968;49.460;11.004;2024-01-30T08:06:15;13.13;;;8.18;;
83096;SDS011;72968;49.460;11.004;2024-01-30T08:08:47;15.25;;;8.05;;
83096;SDS011;72968;49.460;11.004;2024-01-30T08:11:19;17.50;;;7.80;;
83096;SDS011;72968;49.460;11.004;2024-01-30T08:13:57;12.80;;;6.97;;
83096;SDS011;72968;49.460;11.004;2024-01-30T08:16:28;17.40;;;8.27;;
83096;SDS011;72968;49.460;11.004;2024-01-30T08:19:00;14.43;;;7.25;;
83096;SDS011;72968;49.460;11.004;2024-01-30T08:21:32;18.55;;;8.93;;
83096;SDS011;72968;49.460;11.004;2024-01-30T08:24:07;16.20;;;7.82;;
83096;SDS011;72968;49.460;11.004;2024-01-30T08:26:40;14.80;;;7.50;;
83096;SDS011;72968;49.460;11.004;2024-01-30T08:29:16;12.00;;;7.13;;
83096;SDS011;72968;49.460;11.004;2024-01-30T08:31:51;13.20;;;6.55;;
83096;SDS011;72968;49.460;11.004;2024-01-30T08:34:25;13.10;;;7.18;;
83096;SDS011;72968;49.460;11.004;2024-01-30T08:36:57;16.42;;;7.10;;
83096;SDS011;72968;49.460;11.004;2024-01-30T08:39:35;21.30;;;7.97;;
83096;SDS011;72968;49.460;11.004;2024-01-30T08:42:09;16.00;;;7.32;;
83096;SDS011;72968;49.460;11.004;2024-01-30T08:44:42;15.77;;;7.20;;
83096;SDS011;72968;49.460;11.004;2024-01-30T08:47:14;11.82;;;6.70;;
83096;SDS011;72968;49.460;11.004;2024-01-30T08:49:46;12.57;;;7.60;;
83096;SDS011;72968;49.460;11.004;2024-01-30T08:52:17;13.45;;;7.72;;
83096;SDS011;72968;49.460;11.004;2024-01-30T08:54:49;14.55;;;7.15;;
83096;SDS011;72968;49.460;11.004;2024-01-30T08:57:20;13.63;;;7.18;;
83096;SDS011;72968;49.460;11.004;2024-01-30T08:59:54;13.88;;;7.25;;
83096;SDS011;72968;49.460;11.004;2024-01-30T09:02:26;14.30;;;8.13;;
83096;SDS011;72968;49.460;11.004;2024-01-30T09:04:57;12.48;;;7.65;;
83096;SDS011;72968;49.460;11.004;2024-01-30T09:07:29;18.95;;;7.20;;
83096;SDS011;72968;49.460;11.004;2024-01-30T09:10:00;10.88;;;6.25;;
83096;SDS011;72968;49.460;11.004;2024-01-30T09:12:33;12.68;;;7.38;;
83096;SDS011;72968;49.460;11.004;2024-01-30T09:15:07;12.05;;;6.82;;
83096;SDS011;72968;49.460;11.004;2024-01-30T09:17:39;16.40;;;7.35;;
83096;SDS011;72968;49.460;11.004;2024-01-30T09:20:11;13.65;;;6.45;;
83096;SDS011;72968;49.460;11.004;2024-01-30T09:22:42;12.40;;;5.80;;
83096;SDS011;72968;49.460;11.004;2024-01-30T09:25:14;13.50;;;7.00;;
83096;SDS011;72968;49.460;11.004;2024-01-30T09:27:45;14.68;;;7.20;;
83096;SDS011;72968;49.460;11.004;2024-01-30T09:30:18;14.68;;;8.02;;
83096;SDS011;72968;49.460;11.004;2024-01-30T09:32:50;11.75;;;6.65;;
83096;SDS011;72968;49.460;11.004;2024-01-30T09:35:22;9.75;;;7.10;;
83096;SDS011;72968;49.460;11.004;2024-01-30T09:37:54;13.48;;;7.45;;
83096;SDS011;72968;49.460;11.004;2024-01-30T09:40:28;14.07;;;8.45;;
83096;SDS011;72968;49.460;11.004;2024-01-30T09:42:59;13.23;;;6.47;;
83096;SDS011;72968;49.460;11.004;2024-01-30T09:45:35;14.32;;;8.45;;
83096;SDS011;72968;49.460;11.004;2024-01-30T09:48:07;17.08;;;7.60;;
83096;SDS011;72968;49.460;11.004;2024-01-30T09:50:39;15.05;;;7.03;;
83096;SDS011;72968;49.460;11.004;2024-01-30T09:53:10;12.77;;;6.10;;
83096;SDS011;72968;49.460;11.004;2024-01-30T09:55:43;12.40;;;7.82;;
83096;SDS011;72968;49.460;11.004;2024-01-30T09:58:14;13.02;;;7.18;;
83096;SDS011;72968;49.460;11.004;2024-01-30T10:00:47;17.10;;;7.70;;
83096;SDS011;72968;49.460;11.004;2024-01-30T10:03:21;13.90;;;7.35;;
83096;SDS011;72968;49.460;11.004;2024-01-30T10:05:52;14.82;;;7.60;;
83096;SDS011;72968;49.460;11.004;2024-01-30T10:08:25;15.77;;;7.10;;
83096;SDS011;72968;49.460;11.004;2024-01-30T10:10:57;11.93;;;7.13;;
83096;SDS011;72968;49.460;11.004;2024-01-30T10:13:31;13.45;;;8.18;;
83096;SDS011;72968;49.460;11.004;2024-01-30T10:16:04;12.82;;;7.70;;
83096;SDS011;72968;49.460;11.004;2024-01-30T10:18:36;14.35;;;7.30;;
83096;SDS011;72968;49.460;11.004;2024-01-30T10:21:08;12.70;;;7.75;;
83096;SDS011;72968;49.460;11.004;2024-01-30T10:23:40;13.35;;;7.70;;
83096;SDS011;72968;49.460;11.004;2024-01-30T10:26:15;14.38;;;7.60;;
83096;SDS011;72968;49.460;11.004;2024-01-30T10:28:47;11.73;;;6.50;;
83096;SDS011;72968;49.460;11.004;2024-01-30T10:31:20;14.93;;;7.55;;
83096;SDS011;72968;49.460;11.004;2024-01-30T10:33:53;14.55;;;7.88;;
83096;SDS011;72968;49.460;11.004;2024-01-30T10:36:26;12.30;;;7.25;;
83096;SDS011;72968;49.460;11.004;2024-01-30T10:39:01;17.42;;;8.25;;
83096;SDS011;72968;49.460;11.004;2024-01-30T10:41:37;15.68;;;7.90;;
83096;SDS011;72968;49.460;11.004;2024-01-30T10:44:11;14.98;;;7.60;;
83096;SDS011;72968;49.460;11.004;2024-01-30T10:46:45;14.23;;;7.40;;
83096;SDS011;72968;49.460;11.004;2024-01-30T10:49:19;13.20;;;7.25;;
83096;SDS011;72968;49.460;11.004;2024-01-30T10:51:52;15.00;;;7.78;;
83096;SDS011;72968;49.460;11.004;2024-01-30T10:54:29;14.80;;;8.57;;
83096;SDS011;72968;49.460;11.004;2024-01-30T10:57:02;13.38;;;7.20;;
83096;SDS011;72968;49.460;11.004;2024-01-30T10:59:34;14.02;;;7.22;;
83096;SDS011;72968;49.460;11.004;2024-01-30T11:02:10;13.48;;;7.20;;
83096;SDS011;72968;49.460;11.004;2024-01-30T11:04:41;15.52;;;7.90;;
83096;SDS011;72968;49.460;11.004;2024-01-30T11:07:14;12.07;;;7.53;;
83096;SDS011;72968;49.460;11.004;2024-01-30T11:09:49;11.48;;;5.63;;
83096;SDS011;72968;49.460;11.004;2024-01-30T11:12:21;14.57;;;6.68;;
83096;SDS011;72968;49.460;11.004;2024-01-30T11:15:02;11.57;;;7.28;;
83096;SDS011;72968;49.460;11.004;2024-01-30T11:17:41;11.18;;;5.72;;
83096;SDS011;72968;49.460;11.004;2024-01-30T11:20:14;10.68;;;6.70;;
83096;SDS011;72968;49.460;11.004;2024-01-30T11:22:46;12.40;;;7.22;;
83096;SDS011;72968;49.460;11.004;2024-01-30T11:25:19;10.07;;;6.60;;
83096;SDS011;72968;49.460;11.004;2024-01-30T11:27:51;11.80;;;7.35;;
83096;SDS011;72968;49.460;11.004;2024-01-30T11:30:24;10.27;;;6.95;;
83096;SDS011;72968;49.460;11.004;2024-01-30T11:33:01;12.15;;;7.05;;
83096;SDS011;72968;49.460;11.004;2024-01-30T11:35:34;12.27;;;7.10;;
83096;SDS011;72968;49.460;11.004;2024-01-30T11:38:07;11.43;;;6.70;;
83096;SDS011;72968;49.460;11.004;2024-01-30T11:40:38;16.88;;;6.85;;
83096;SDS011;72968;49.460;11.004;2024-01-30T11:43:10;10.88;;;5.85;;
83096;SDS011;72968;49.460;11.004;2024-01-30T11:45:42;11.88;;;7.32;;
83096;SDS011;72968;49.460;11.004;2024-01-30T11:48:16;9.75;;;5.65;;
83096;SDS011;72968;49.460;11.004;2024-01-30T11:50:48;12.57;;;6.63;;
83096;SDS011;72968;49.460;11.004;2024-01-30T11:53:20;9.40;;;5.75;;
83096;SDS011;72968;49.460;11.004;2024-01-30T11:55:52;11.10;;;6.93;;
83096;SDS011;72968;49.460;11.004;2024-01-30T11:58:25;11.90;;;6.78;;
83096;SDS011;72968;49.460;11.004;2024-01-30T12:00:57;12.43;;;7.00;;
83096;SDS011;72968;49.460;11.004;2024-01-30T12:03:31;13.65;;;7.38;;
83096;SDS011;72968;49.460;11.004;2024-01-30T12:06:05;10.95;;;6.85;;
83096;SDS011;72968;49.460;11.004;2024-01-30T12:08:39;11.95;;;6.38;;
83096;SDS011;72968;49.460;11.004;2024-01-30T12:11:11;11.52;;;7.43;;
83096;SDS011;72968;49.460;11.004;2024-01-30T12:13:45;14.07;;;7.03;;
83096;SDS011;72968;49.460;11.004;2024-01-30T12:16:18;10.43;;;6.47;;
83096;SDS011;72968;49.460;11.004;2024-01-30T12:18:58;12.82;;;6.15;;
83096;SDS011;72968;49.460;11.004;2024-01-30T12:21:30;10.65;;;6.90;;
83096;SDS011;72968;49.460;11.004;2024-01-30T12:24:06;9.10;;;6.15;;
83096;SDS011;72968;49.460;11.004;2024-01-30T12:26:38;12.35;;;6.90;;
83096;SDS011;72968;49.460;11.004;2024-01-30T12:29:12;10.98;;;6.75;;
83096;SDS011;72968;49.460;11.004;2024-01-30T12:31:45;10.48;;;7.15;;
83096;SDS011;72968;49.460;11.004;2024-01-30T12:34:20;16.85;;;7.20;;
83096;SDS011;72968;49.460;11.004;2024-01-30T12:36:51;10.88;;;6.93;;
83096;SDS011;72968;49.460;11.004;2024-01-30T12:39:23;11.60;;;7.20;;
83096;SDS011;72968;49.460;11.004;2024-01-30T12:41:57;12.73;;;6.70;;
83096;SDS011;72968;49.460;11.004;2024-01-30T12:44:29;13.55;;;6.78;;
83096;SDS011;72968;49.460;11.004;2024-01-30T12:47:05;12.65;;;7.28;;
83096;SDS011;72968;49.460;11.004;2024-01-30T12:49:39;10.88;;;6.53;;
83096;SDS011;72968;49.460;11.004;2024-01-30T12:52:13;13.75;;;7.40;;
83096;SDS011;72968;49.460;11.004;2024-01-30T12:54:45;12.70;;;7.30;;
83096;SDS011;72968;49.460;11.004;2024-01-30T12:57:17;13.15;;;6.97;;
83096;SDS011;72968;49.460;11.004;2024-01-30T12:59:48;10.77;;;6.60;;
83096;SDS011;72968;49.460;11.004;2024-01-30T13:02:19;12.43;;;7.20;;
83096;SDS011;72968;49.460;11.004;2024-01-30T13:04:55;12.93;;;6.80;;
83096;SDS011;72968;49.460;11.004;2024-01-30T13:07:26;10.32;;;6.82;;
83096;SDS011;72968;49.460;11.004;2024-01-30T13:09:58;14.27;;;8.07;;
83096;SDS011;72968;49.460;11.004;2024-01-30T13:12:33;12.85;;;6.85;;
83096;SDS011;72968;49.460;11.004;2024-01-30T13:15:05;13.13;;;7.10;;
83096;SDS011;72968;49.460;11.004;2024-01-30T13:17:39;11.82;;;7.13;;
83096;SDS011;72968;49.460;11.004;2024-01-30T13:20:15;11.23;;;7.30;;
83096;SDS011;72968;49.460;11.004;2024-01-30T13:22:49;10.95;;;7.25;;
83096;SDS011;72968;49.460;11.004;2024-01-30T13:25:21;15.40;;;8.18;;
83096;SDS011;72968;49.460;11.004;2024-01-30T13:27:52;10.82;;;6.88;;
83096;SDS011;72968;49.460;11.004;2024-01-30T13:30:24;12.48;;;7.30;;
83096;SDS011;72968;49.460;11.004;2024-01-30T13:32:55;10.65;;;6.22;;
83096;SDS011;72968;49.460;11.004;2024-01-30T13:35:28;13.23;;;6.60;;
83096;SDS011;72968;49.460;11.004;2024-01-30T13:38:00;15.98;;;6.90;;
83096;SDS011;72968;49.460;11.004;2024-01-30T13:40:31;9.15;;;6.57;;
83096;SDS011;72968;49.460;11.004;2024-01-30T13:43:03;10.98;;;6.20;;
83096;SDS011;72968;49.460;11.004;2024-01-30T13:45:34;12.15;;;6.45;;
83096;SDS011;72968;49.460;11.004;2024-01-30T13:48:06;12.07;;;7.30;;
83096;SDS011;72968;49.460;11.004;2024-01-30T13:50:39;11.63;;;7.38;;
83096;SDS011;72968;49.460;11.004;2024-01-30T13:53:10;14.02;;;7.25;;
83096;SDS011;72968;49.460;11.004;2024-01-30T13:55:42;12.25;;;7.55;;
83096;SDS011;72968;49.460;11.004;2024-01-30T13:58:13;15.95;;;6.82;;
83096;SDS011;72968;49.460;11.004;2024-01-30T14:00:45;11.02;;;6.82;;
83096;SDS011;72968;49.460;11.004;2024-01-30T14:03:16;10.02;;;6.40;;
83096;SDS011;72968;49.460;11.004;2024-01-30T14:05:49;10.77;;;6.47;;
83096;SDS011;72968;49.460;11.004;2024-01-30T14:08:20;13.55;;;7.43;;
83096;SDS011;72968;49.460;11.004;2024-01-30T14:10:54;12.65;;;7.05;;
83096;SDS011;72968;49.460;11.004;2024-01-30T14:13:26;15.77;;;9.23;;
83096;SDS011;72968;49.460;11.004;2024-01-30T14:15:57;11.10;;;6.38;;
83096;SDS011;72968;49.460;11.004;2024-01-30T14:18:29;13.13;;;6.70;;
83096;SDS011;72968;49.460;11.004;2024-01-30T14:21:02;14.60;;;7.55;;
83096;SDS011;72968;49.460;11.004;2024-01-30T14:23:33;11.82;;;6.60;;
83096;SDS011;72968;49.460;11.004;2024-01-30T14:26:05;11.77;;;6.82;;
83096;SDS011;72968;49.460;11.004;2024-01-30T14:28:37;13.43;;;7.78;;
83096;SDS011;72968;49.460;11.004;2024-01-30T14:31:08;11.63;;;7.28;;
83096;SDS011;72968;49.460;11.004;2024-01-30T14:33:39;12.93;;;7.10;;
83096;SDS011;72968;49.460;11.004;2024-01-30T14:36:14;11.48;;;7.22;;
83096;SDS011;72968;49.460;11.004;2024-01-30T14:38:46;15.75;;;7.43;;
83096;SDS011;72968;49.460;11.004;2024-01-30T14:41:17;10.75;;;6.75;;
83096;SDS011;72968;49.460;11.004;2024-01-30T14:43:48;11.25;;;6.82;;
83096;SDS011;72968;49.460;11.004;2024-01-30T14:46:22;13.00;;;6.45;;
83096;SDS011;72968;49.460;11.004;2024-01-30T14:48:53;10.07;;;6.38;;
83096;SDS011;72968;49.460;11.004;2024-01-30T14:51:29;10.63;;;6.90;;
83096;SDS011;72968;49.460;11.004;2024-01-30T14:54:00;10.55;;;7.00;;
83096;SDS011;72968;49.460;11.004;2024-01-30T14:56:33;14.23;;;7.15;;
83096;SDS011;72968;49.460;11.004;2024-01-30T14:59:06;10.10;;;6.07;;